sensor_id;sensor_type;location;lat;lon;timestamp;pressure;altitude;pressure_sealevel;temperature;humidity
23170;BME280;11753;43.144;24.714;2023-01-29T00:00:21;99851.63;;;2.87;100.00
23170;BME280;11753;43.144;24.714;2023-01-29T00:01:22;99855.50;;;2.94;100.00
23170;BME280;11753;43.144;24.714;2023-01-29T00:02:23;99849.13;;;2.71;100.00
23170;BME280;11753;43.144;24.714;2023-01-29T00:03:23;99851.31;;;2.65;100.00
23170;BME280;11753;43.144;24.714;2023-01-29T00:04:25;99846.75;;;2.68;100.00
23170;BME280;11753;43.144;24.714;2023-01-29T00:05:26;99847.78;;;2.66;100.00
23170;BME280;11753;43.144;24.714;2023-01-29T00:06:27;99847.25;;;2.61;100.00
23170;BME280;11753;43.144;24.714;2023-01-29T00:07:28;99847.50;;;2.56;100.00
23170;BME280;11753;43.144;24.714;2023-01-29T00:08:29;99853.38;;;2.60;100.00
23170;BME280;11753;43.144;24.714;2023-01-29T00:09:32;99851.22;;;2.66;100.00
23170;BME280;11753;43.144;24.714;2023-01-29T00:10:33;99848.63;;;2.66;100.00
23170;BME280;11753;43.144;24.714;2023-01-29T00:11:35;99848.63;;;2.66;100.00
23170;BME280;11753;43.144;24.714;2023-01-29T00:12:36;99852.50;;;2.73;100.00
23170;BME280;11753;43.144;24.714;2023-01-29T00:13:37;99844.75;;;2.59;100.00
23170;BME280;11753;43.144;24.714;2023-01-29T00:14:38;99848.63;;;2.66;100.00
23170;BME280;11753;43.144;24.714;2023-01-29T00:15:40;99849.00;;;2.60;100.00
23170;BME280;11753;43.144;24.714;2023-01-29T00:16:40;99853.06;;;2.64;100.00
23170;BME280;11753;43.144;24.714;2023-01-29T00:17:41;99856.22;;;2.69;100.00
23170;BME280;11753;43.144;24.714;2023-01-29T00:18:43;99853.22;;;2.75;100.00
23170;BME280;11753;43.144;24.714;2023-01-29T00:19:45;99857.31;;;2.80;100.00
23170;BME280;11753;43.144;24.714;2023-01-29T00:20:46;99854.22;;;2.87;100.00
23170;BME280;11753;43.144;24.714;2023-01-29T00:21:47;99855.22;;;2.85;100.00
23170;BME280;11753;43.144;24.714;2023-01-29T00:22:48;99860.44;;;2.85;100.00
23170;BME280;11753;43.144;24.714;2023-01-29T00:23:49;99858.59;;;2.87;100.00
23170;BME280;11753;43.144;24.714;2023-01-29T00:24:50;99861.69;;;2.92;100.00
23170;BME280;11753;43.144;24.714;2023-01-29T00:25:51;99857.97;;;2.96;100.00
23170;BME280;11753;43.144;24.714;2023-01-29T00:26:52;99862.97;;;2.99;100.00
23170;BME280;11753;43.144;24.714;2023-01-29T00:27:53;99864.56;;;3.01;100.00
23170;BME280;11753;43.144;24.714;2023-01-29T00:28:55;99864.56;;;3.01;100.00
23170;BME280;11753;43.144;24.714;2023-01-29T00:30:03;99864.63;;;3.00;100.00
23170;BME280;11753;43.144;24.714;2023-01-29T00:31:17;99868.00;;;3.02;100.00
23170;BME280;11753;43.144;24.714;2023-01-29T00:32:18;99869.84;;;3.00;100.00
23170;BME280;11753;43.144;24.714;2023-01-29T00:33:20;99867.25;;;3.00;100.00
23170;BME280;11753;43.144;24.714;2023-01-29T00:34:22;99866.56;;;2.84;100.00
23170;BME280;11753;43.144;24.714;2023-01-29T00:35:23;99864.78;;;2.84;100.00
23170;BME280;11753;43.144;24.714;2023-01-29T00:36:26;99869.16;;;2.84;100.00
23170;BME280;11753;43.144;24.714;2023-01-29T00:37:27;99870.66;;;2.88;100.00
23170;BME280;11753;43.144;24.714;2023-01-29T00:38:29;99865.06;;;2.94;100.00
23170;BME280;11753;43.144;24.714;2023-01-29T00:39:30;99866.91;;;2.92;100.00
23170;BME280;11753;43.144;24.714;2023-01-29T00:40:38;99867.75;;;2.92;100.00
23170;BME280;11753;43.144;24.714;2023-01-29T00:41:58;99859.84;;;2.67;100.00
23170;BME280;11753;43.144;24.714;2023-01-29T00:43:18;99856.81;;;2.60;100.00
23170;BME280;11753;43.144;24.714;2023-01-29T00:44:38;99847.16;;;2.48;100.00
23170;BME280;11753;43.144;24.714;2023-01-29T00:45:58;99858.22;;;2.52;100.00
23170;BME280;11753;43.144;24.714;2023-01-29T00:47:00;99864.84;;;2.43;100.00
23170;BME280;11753;43.144;24.714;2023-01-29T00:48:03;99856.31;;;2.27;100.00
23170;BME280;11753;43.144;24.714;2023-01-29T00:49:06;99860.75;;;2.39;100.00
23170;BME280;11753;43.144;24.714;2023-01-29T00:50:10;99863.00;;;2.31;100.00
23170;BME280;11753;43.144;24.714;2023-01-29T00:51:11;99865.50;;;2.32;100.00
23170;BME280;11753;43.144;24.714;2023-01-29T00:52:12;99859.22;;;2.08;100.00
23170;BME280;11753;43.144;24.714;2023-01-29T00:53:27;99861.13;;;2.18;100.00
23170;BME280;11753;43.144;24.714;2023-01-29T00:54:28;99864.44;;;2.35;100.00
23170;BME280;11753;43.144;24.714;2023-01-29T00:55:30;99861.13;;;2.33;100.00
23170;BME280;11753;43.144;24.714;2023-01-29T00:56:35;99865.00;;;2.40;100.00
23170;BME280;11753;43.144;24.714;2023-01-29T00:57:37;99863.00;;;2.31;100.00
23170;BME280;11753;43.144;24.714;2023-01-29T00:58:38;99864.38;;;2.36;100.00
23170;BME280;11753;43.144;24.714;2023-01-29T00:59:39;99863.16;;;2.28;100.00
23170;BME280;11753;43.144;24.714;2023-01-29T01:00:41;99863.47;;;2.23;100.00
23170;BME280;11753;43.144;24.714;2023-01-29T01:01:42;99864.94;;;2.27;100.00
23170;BME280;11753;43.144;24.714;2023-01-29T01:03:02;99866.53;;;2.15;100.00
23170;BME280;11753;43.144;24.714;2023-01-29T01:04:09;99868.19;;;2.16;100.00
23170;BME280;11753;43.144;24.714;2023-01-29T01:05:12;99865.41;;;2.19;100.00
23170;BME280;11753;43.144;24.714;2023-01-29T01:06:17;99872.25;;;2.20;100.00
23170;BME280;11753;43.144;24.714;2023-01-29T01:07:20;99874.38;;;2.28;100.00
23170;BME280;11753;43.144;24.714;2023-01-29T01:08:22;99868.47;;;2.26;100.00
23170;BME280;11753;43.144;24.714;2023-01-29T01:09:41;99867.25;;;2.17;100.00
23170;BME280;11753;43.144;24.714;2023-01-29T01:11:21;99872.44;;;2.32;100.00
23170;BME280;11753;43.144;24.714;2023-01-29T01:12:23;99865.38;;;2.34;100.00
23170;BME280;11753;43.144;24.714;2023-01-29T01:13:28;99879.31;;;2.33;100.00
23170;BME280;11753;43.144;24.714;2023-01-29T01:14:32;99880.25;;;2.17;100.00
23170;BME280;11753;43.144;24.714;2023-01-29T01:15:38;99875.44;;;1.97;100.00
23170;BME280;11753;43.144;24.714;2023-01-29T01:16:39;99873.03;;;1.94;100.00
23170;BME280;11753;43.144;24.714;2023-01-29T01:17:40;99873.88;;;1.95;100.00
23170;BME280;11753;43.144;24.714;2023-01-29T01:18:45;99876.94;;;2.15;100.00
23170;BME280;11753;43.144;24.714;2023-01-29T01:19:46;99881.19;;;2.02;100.00
23170;BME280;11753;43.144;24.714;2023-01-29T01:20:48;99882.13;;;2.01;100.00
23170;BME280;11753;43.144;24.714;2023-01-29T01:21:52;99886.84;;;1.95;100.00
23170;BME280;11753;43.144;24.714;2023-01-29T01:22:54;99883.31;;;1.96;100.00
23170;BME280;11753;43.144;24.714;2023-01-29T01:23:57;99883.06;;;2.00;100.00
23170;BME280;11753;43.144;24.714;2023-01-29T01:24:58;99881.81;;;2.06;100.00
23170;BME280;11753;43.144;24.714;2023-01-29T01:26:00;99878.22;;;1.94;100.00
23170;BME280;11753;43.144;24.714;2023-01-29T01:27:04;99878.47;;;1.75;100.00
23170;BME280;11753;43.144;24.714;2023-01-29T01:28:07;99875.97;;;1.74;100.00
23170;BME280;11753;43.144;24.714;2023-01-29T01:29:10;99879.31;;;1.76;100.00
23170;BME280;11753;43.144;24.714;2023-01-29T01:30:14;99883.03;;;1.72;100.00
23170;BME280;11753;43.144;24.714;2023-01-29T01:31:15;99878.94;;;1.82;100.00
23170;BME280;11753;43.144;24.714;2023-01-29T01:32:17;99877.72;;;1.59;100.00
23170;BME280;11753;43.144;24.714;2023-01-29T01:33:18;99881.53;;;1.68;100.00
23170;BME280;11753;43.144;24.714;2023-01-29T01:34:21;99883.03;;;1.72;100.00
23170;BME280;11753;43.144;24.714;2023-01-29T01:35:23;99882.25;;;1.70;100.00
23170;BME280;11753;43.144;24.714;2023-01-29T01:36:24;99879.19;;;1.63;100.00
23170;BME280;11753;43.144;24.714;2023-01-29T01:37:26;99883.56;;;1.77;100.00
23170;BME280;11753;43.144;24.714;2023-01-29T01:38:28;99888.03;;;1.75;100.00
23170;BME280;11753;43.144;24.714;2023-01-29T01:39:30;99891.19;;;1.80;100.00
23170;BME280;11753;43.144;24.714;2023-01-29T01:40:31;99891.00;;;1.83;100.00
23170;BME280;11753;43.144;24.714;2023-01-29T01:41:32;99892.88;;;1.95;100.00
23170;BME280;11753;43.144;24.714;2023-01-29T01:42:34;99883.06;;;2.00;100.00
23170;BME280;11753;43.144;24.714;2023-01-29T01:44:59;99882.50;;;2.09;100.00
23170;BME280;11753;43.144;24.714;2023-01-29T01:46:03;99885.34;;;2.05;100.00
23170;BME280;11753;43.144;24.714;2023-01-29T01:47:04;99882.84;;;2.03;100.00
23170;BME280;11753;43.144;24.714;2023-01-29T01:48:21;99879.78;;;2.11;100.00
23170;BME280;11753;43.144;24.714;2023-01-29T01:49:24;99879.53;;;2.15;100.00
23170;BME280;11753;43.144;24.714;2023-01-29T01:50:30;99888.03;;;2.03;100.00
23170;BME280;11753;43.144;24.714;2023-01-29T01:51:38;99887.84;;;1.92;100.00
23170;BME280;11753;43.144;24.714;2023-01-29T01:52:46;99887.78;;;1.93;100.00
23170;BME280;11753;43.144;24.714;2023-01-29T01:54:02;99881.44;;;1.83;100.00
23170;BME280;11753;43.144;24.714;2023-01-29T01:55:08;99884.88;;;1.84;100.00
23170;BME280;11753;43.144;24.714;2023-01-29T01:56:14;99891.19;;;1.80;100.00
23170;BME280;11753;43.144;24.714;2023-01-29T01:57:20;99876.91;;;1.73;100.00
23170;BME280;11753;43.144;24.714;2023-01-29T01:58:37;99880.97;;;1.77;100.00
23170;BME280;11753;43.144;24.714;2023-01-29T01:59:39;99884.78;;;1.85;100.00
23170;BME280;11753;43.144;24.714;2023-01-29T02:00:40;99889.25;;;1.98;100.00
23170;BME280;11753;43.144;24.714;2023-01-29T02:01:45;99893.44;;;2.00;100.00
23170;BME280;11753;43.144;24.714;2023-01-29T02:02:49;99885.63;;;1.86;100.00
23170;BME280;11753;43.144;24.714;2023-01-29T02:04:16;99886.19;;;1.91;100.00
23170;BME280;11753;43.144;24.714;2023-01-29T02:05:38;99889.13;;;1.85;100.00
23170;BME280;11753;43.144;24.714;2023-01-29T02:07:01;99881.91;;;1.90;100.00
23170;BME280;11753;43.144;24.714;2023-01-29T02:08:29;99882.84;;;1.89;100.00
23170;BME280;11753;43.144;24.714;2023-01-29T02:11:00;99876.31;;;1.53;100.00
23170;BME280;11753;43.144;24.714;2023-01-29T02:12:04;99882.34;;;1.68;100.00
23170;BME280;11753;43.144;24.714;2023-01-29T02:13:06;99887.09;;;1.76;100.00
23170;BME280;11753;43.144;24.714;2023-01-29T02:14:07;99884.50;;;1.76;100.00
23170;BME280;11753;43.144;24.714;2023-01-29T02:15:10;99879.97;;;1.79;100.00
23170;BME280;11753;43.144;24.714;2023-01-29T02:16:11;99875.63;;;1.94;100.00
23170;BME280;11753;43.144;24.714;2023-01-29T02:17:15;99883.22;;;1.83;100.00
23170;BME280;11753;43.144;24.714;2023-01-29T02:18:19;99885.53;;;1.87;100.00
23170;BME280;11753;43.144;24.714;2023-01-29T02:19:35;99887.56;;;1.82;100.00
23170;BME280;11753;43.144;24.714;2023-01-29T02:20:41;99888.13;;;1.87;100.00
23170;BME280;11753;43.144;24.714;2023-01-29T02:26:44;99881.34;;;1.71;100.00
23170;BME280;11753;43.144;24.714;2023-01-29T02:29:31;99894.06;;;1.75;100.00
23170;BME280;11753;43.144;24.714;2023-01-29T02:30:40;99886.72;;;1.68;100.00
23170;BME280;11753;43.144;24.714;2023-01-29T02:31:50;99888.22;;;1.72;100.00
23170;BME280;11753;43.144;24.714;2023-01-29T02:32:58;99891.00;;;1.83;100.00
23170;BME280;11753;43.144;24.714;2023-01-29T02:34:17;99893.81;;;1.94;100.00
23170;BME280;11753;43.144;24.714;2023-01-29T02:35:33;99885.56;;;2.02;100.00
23170;BME280;11753;43.144;24.714;2023-01-29T02:36:49;99885.81;;;2.11;100.00
23170;BME280;11753;43.144;24.714;2023-01-29T02:39:32;99896.03;;;1.86;100.00
23170;BME280;11753;43.144;24.714;2023-01-29T02:43:13;99893.19;;;1.60;100.00
23170;BME280;11753;43.144;24.714;2023-01-29T02:44:37;99900.06;;;1.76;100.00
23170;BME280;11753;43.144;24.714;2023-01-29T02:45:49;99894.16;;;1.88;100.00
23170;BME280;11753;43.144;24.714;2023-01-29T02:47:59;99891.34;;;1.77;100.00
23170;BME280;11753;43.144;24.714;2023-01-29T02:52:01;99893.78;;;1.65;100.00
23170;BME280;11753;43.144;24.714;2023-01-29T02:54:33;99905.63;;;1.70;100.00
23170;BME280;11753;43.144;24.714;2023-01-29T02:56:57;99902.78;;;1.88;100.00
23170;BME280;11753;43.144;24.714;2023-01-29T02:58:08;99905.28;;;1.90;100.00
23170;BME280;11753;43.144;24.714;2023-01-29T02:59:17;99895.84;;;1.89;100.00
23170;BME280;11753;43.144;24.714;2023-01-29T03:00:22;99901.66;;;1.92;100.00
23170;BME280;11753;43.144;24.714;2023-01-29T03:01:57;99901.31;;;1.99;100.00
23170;BME280;11753;43.144;24.714;2023-01-29T03:04:38;99902.09;;;1.71;100.00
23170;BME280;11753;43.144;24.714;2023-01-29T03:07:06;99901.03;;;1.89;100.00
23170;BME280;11753;43.144;24.714;2023-01-29T03:08:15;99904.91;;;1.82;100.00
23170;BME280;11753;43.144;24.714;2023-01-29T03:09:26;99905.97;;;1.93;100.00
23170;BME280;11753;43.144;24.714;2023-01-29T03:10:37;99903.91;;;1.99;100.00
23170;BME280;11753;43.144;24.714;2023-01-29T03:11:47;99914.19;;;1.86;100.00
23170;BME280;11753;43.144;24.714;2023-01-29T03:13:07;99906.56;;;1.83;100.00
23170;BME280;11753;43.144;24.714;2023-01-29T03:14:16;99900.44;;;1.84;100.00
23170;BME280;11753;43.144;24.714;2023-01-29T03:15:28;99904.44;;;1.75;100.00
23170;BME280;11753;43.144;24.714;2023-01-29T03:16:51;99918.22;;;1.61;100.00
23170;BME280;11753;43.144;24.714;2023-01-29T03:18:23;99909.69;;;1.59;100.00
23170;BME280;11753;43.144;24.714;2023-01-29T03:19:37;99911.59;;;1.72;100.00
23170;BME280;11753;43.144;24.714;2023-01-29T03:20:48;99913.03;;;1.61;100.00
23170;BME280;11753;43.144;24.714;2023-01-29T03:21:52;99908.22;;;1.70;100.00
23170;BME280;11753;43.144;24.714;2023-01-29T03:23:08;99906.09;;;1.76;100.00
23170;BME280;11753;43.144;24.714;2023-01-29T03:24:12;99907.69;;;1.79;100.00
23170;BME280;11753;43.144;24.714;2023-01-29T03:25:34;99923.19;;;1.80;100.00
23170;BME280;11753;43.144;24.714;2023-01-29T03:26:53;99915.94;;;1.85;100.00
23170;BME280;11753;43.144;24.714;2023-01-29T03:28:17;99917.78;;;1.83;100.00
23170;BME280;11753;43.144;24.714;2023-01-29T03:29:41;99911.88;;;1.81;100.00
23170;BME280;11753;43.144;24.714;2023-01-29T03:31:05;99915.50;;;1.79;100.00
23170;BME280;11753;43.144;24.714;2023-01-29T03:32:27;99909.34;;;1.65;100.00
23170;BME280;11753;43.144;24.714;2023-01-29T03:33:32;99912.38;;;1.58;100.00
23170;BME280;11753;43.144;24.714;2023-01-29T03:34:46;99925.75;;;1.66;100.00
23170;BME280;11753;43.144;24.714;2023-01-29T03:36:57;99915.66;;;1.76;100.00
23170;BME280;11753;43.144;24.714;2023-01-29T03:37:46;99916.84;;;1.70;100.00
23170;BME280;11753;43.144;24.714;2023-01-29T03:38:48;99918.59;;;1.70;100.00
23170;BME280;11753;43.144;24.714;2023-01-29T03:39:50;99919.19;;;1.75;100.00
23170;BME280;11753;43.144;24.714;2023-01-29T03:41:31;99920.47;;;1.82;100.00
23170;BME280;11753;43.144;24.714;2023-01-29T03:44:25;99920.06;;;1.59;100.00
23170;BME280;11753;43.144;24.714;2023-01-29T03:47:19;99915.25;;;1.53;100.00
23170;BME280;11753;43.144;24.714;2023-01-29T03:52:18;99917.66;;;1.71;100.00
23170;BME280;11753;43.144;24.714;2023-01-29T03:53:27;99924.09;;;1.65;100.00
23170;BME280;11753;43.144;24.714;2023-01-29T03:54:59;99925.06;;;1.62;100.00
23170;BME280;11753;43.144;24.714;2023-01-29T03:56:17;99925.31;;;1.44;100.00
23170;BME280;11753;43.144;24.714;2023-01-29T03:57:32;99914.50;;;1.51;100.00
23170;BME280;11753;43.144;24.714;2023-01-29T03:59:02;99922.09;;;1.54;100.00
23170;BME280;11753;43.144;24.714;2023-01-29T04:00:16;99916.91;;;1.54;100.00
23170;BME280;11753;43.144;24.714;2023-01-29T04:01:43;99917.09;;;1.51;100.00
23170;BME280;11753;43.144;24.714;2023-01-29T04:04:16;99919.00;;;1.48;100.00
23170;BME280;11753;43.144;24.714;2023-01-29T04:05:26;99922.56;;;1.61;100.00
23170;BME280;11753;43.144;24.714;2023-01-29T04:06:32;99917.78;;;1.69;100.00
23170;BME280;11753;43.144;24.714;2023-01-29T04:07:35;99921.75;;;1.60;100.00
23170;BME280;11753;43.144;24.714;2023-01-29T04:08:51;99918.13;;;1.63;100.00
23170;BME280;11753;43.144;24.714;2023-01-29T04:10:07;99917.44;;;1.45;100.00
23170;BME280;11753;43.144;24.714;2023-01-29T04:11:13;99912.44;;;1.56;100.00
23170;BME280;11753;43.144;24.714;2023-01-29T04:12:20;99916.25;;;1.51;100.00
23170;BME280;11753;43.144;24.714;2023-01-29T04:13:26;99912.91;;;1.49;100.00
23170;BME280;11753;43.144;24.714;2023-01-29T04:14:28;99911.16;;;1.63;100.00
23170;BME280;11753;43.144;24.714;2023-01-29T04:15:38;99922.66;;;1.59;100.00
23170;BME280;11753;43.144;24.714;2023-01-29T04:16:45;99923.25;;;1.64;100.00
23170;BME280;11753;43.144;24.714;2023-01-29T04:17:52;99914.69;;;1.62;100.00
23170;BME280;11753;43.144;24.714;2023-01-29T04:18:54;99917.94;;;1.52;100.00
23170;BME280;11753;43.144;24.714;2023-01-29T04:19:59;99917.63;;;1.56;100.00
23170;BME280;11753;43.144;24.714;2023-01-29T04:21:01;99921.19;;;1.70;100.00
23170;BME280;11753;43.144;24.714;2023-01-29T04:22:20;99916.06;;;1.54;100.00
23170;BME280;11753;43.144;24.714;2023-01-29T04:23:25;99923.31;;;1.63;100.00
23170;BME280;11753;43.144;24.714;2023-01-29T04:24:27;99923.28;;;1.49;100.00
23170;BME280;11753;43.144;24.714;2023-01-29T04:25:35;99918.66;;;1.54;100.00
23170;BME280;11753;43.144;24.714;2023-01-29T04:28:24;99923.28;;;1.49;100.00
23170;BME280;11753;43.144;24.714;2023-01-29T04:31:07;99928.22;;;1.53;100.00
23170;BME280;11753;43.144;24.714;2023-01-29T04:32:25;99925.25;;;1.59;100.00
23170;BME280;11753;43.144;24.714;2023-01-29T04:34:50;99923.94;;;1.52;100.00
23170;BME280;11753;43.144;24.714;2023-01-29T04:37:42;99928.84;;;1.57;100.00
23170;BME280;11753;43.144;24.714;2023-01-29T04:40:25;99937.06;;;1.65;100.00
23170;BME280;11753;43.144;24.714;2023-01-29T04:41:49;99934.97;;;1.56;100.00
23170;BME280;11753;43.144;24.714;2023-01-29T04:43:05;99942.13;;;1.52;100.00
23170;BME280;11753;43.144;24.714;2023-01-29T04:50:12;99957.66;;;1.82;100.00
23170;BME280;11753;43.144;24.714;2023-01-29T04:51:24;99952.19;;;1.73;100.00
23170;BME280;11753;43.144;24.714;2023-01-29T04:54:00;99958.69;;;1.80;100.00
23170;BME280;11753;43.144;24.714;2023-01-29T04:55:24;99961.25;;;1.65;100.00
23170;BME280;11753;43.144;24.714;2023-01-29T04:59:29;99960.09;;;1.55;100.00
23170;BME280;11753;43.144;24.714;2023-01-29T05:00:39;99960.22;;;1.68;100.00
23170;BME280;11753;43.144;24.714;2023-01-29T05:01:43;99967.91;;;1.70;100.00
23170;BME280;11753;43.144;24.714;2023-01-29T05:02:45;99964.09;;;1.61;100.00
23170;BME280;11753;43.144;24.714;2023-01-29T05:03:50;99958.47;;;1.69;100.00
23170;BME280;11753;43.144;24.714;2023-01-29T05:04:53;99956.13;;;1.64;100.00
23170;BME280;11753;43.144;24.714;2023-01-29T05:05:58;99971.63;;;1.65;100.00
23170;BME280;11753;43.144;24.714;2023-01-29T05:07:03;99971.63;;;1.65;100.00
23170;BME280;11753;43.144;24.714;2023-01-29T05:08:08;99970.13;;;1.61;100.00
23170;BME280;11753;43.144;24.714;2023-01-29T05:09:15;99966.91;;;1.72;100.00
23170;BME280;11753;43.144;24.714;2023-01-29T05:10:21;99969.78;;;1.68;100.00
23170;BME280;11753;43.144;24.714;2023-01-29T05:11:24;99965.84;;;1.60;100.00
23170;BME280;11753;43.144;24.714;2023-01-29T05:12:26;99968.75;;;1.70;100.00
23170;BME280;11753;43.144;24.714;2023-01-29T05:13:30;99973.94;;;1.70;100.00
23170;BME280;11753;43.144;24.714;2023-01-29T05:14:34;99970.13;;;1.61;100.00
23170;BME280;11753;43.144;24.714;2023-01-29T05:15:38;99970.31;;;1.58;100.00
23170;BME280;11753;43.144;24.714;2023-01-29T05:16:46;99976.97;;;1.62;100.00
23170;BME280;11753;43.144;24.714;2023-01-29T05:17:50;99970.31;;;1.58;100.00
23170;BME280;11753;43.144;24.714;2023-01-29T05:18:54;99967.63;;;1.60;100.00
23170;BME280;11753;43.144;24.714;2023-01-29T05:19:56;99974.28;;;1.64;100.00
23170;BME280;11753;43.144;24.714;2023-01-29T05:21:01;99966.25;;;1.69;100.00
23170;BME280;11753;43.144;24.714;2023-01-29T05:22:05;99971.97;;;1.59;100.00
23170;BME280;11753;43.144;24.714;2023-01-29T05:23:16;99976.47;;;1.72;100.00
23170;BME280;11753;43.144;24.714;2023-01-29T05:24:21;99975.75;;;1.84;100.00
23170;BME280;11753;43.144;24.714;2023-01-29T05:25:26;99982.59;;;1.85;100.00
23170;BME280;11753;43.144;24.714;2023-01-29T05:26:28;99979.94;;;1.86;100.00
23170;BME280;11753;43.144;24.714;2023-01-29T05:27:50;99989.31;;;1.89;100.00
23170;BME280;11753;43.144;24.714;2023-01-29T05:29:10;99984.50;;;1.97;100.00
23170;BME280;11753;43.144;24.714;2023-01-29T05:30:11;99985.78;;;1.90;100.00
23170;BME280;11753;43.144;24.714;2023-01-29T05:31:13;99993.22;;;1.96;100.00
23170;BME280;11753;43.144;24.714;2023-01-29T05:32:15;99984.81;;;1.77;100.00
23170;BME280;11753;43.144;24.714;2023-01-29T05:33:18;99987.69;;;1.72;100.00
23170;BME280;11753;43.144;24.714;2023-01-29T05:34:19;99989.50;;;1.86;100.00
23170;BME280;11753;43.144;24.714;2023-01-29T05:35:21;99989.50;;;1.86;100.00
23170;BME280;11753;43.144;24.714;2023-01-29T05:36:21;99986.50;;;1.92;100.00
23170;BME280;11753;43.144;24.714;2023-01-29T05:37:25;99981.66;;;1.72;100.00
23170;BME280;11753;43.144;24.714;2023-01-29T05:38:26;99981.66;;;1.72;100.00
23170;BME280;11753;43.144;24.714;2023-01-29T05:39:27;99989.84;;;1.80;100.00
23170;BME280;11753;43.144;24.714;2023-01-29T05:40:30;99993.00;;;1.85;100.00
23170;BME280;11753;43.144;24.714;2023-01-29T05:41:33;99984.00;;;1.90;100.00
23170;BME280;11753;43.144;24.714;2023-01-29T05:42:35;99990.47;;;1.83;100.00
23170;BME280;11753;43.144;24.714;2023-01-29T05:43:37;99999.34;;;1.95;100.00
23170;BME280;11753;43.144;24.714;2023-01-29T05:44:39;99997.41;;;1.69;100.00
23170;BME280;11753;43.144;24.714;2023-01-29T05:45:41;99997.41;;;1.69;100.00
23170;BME280;11753;43.144;24.714;2023-01-29T05:46:43;99994.50;;;1.59;100.00
23170;BME280;11753;43.144;24.714;2023-01-29T05:47:45;99998.31;;;1.68;100.00
23170;BME280;11753;43.144;24.714;2023-01-29T05:48:48;100001.41;;;1.74;100.00
23170;BME280;11753;43.144;24.714;2023-01-29T05:49:49;100003.75;;;1.79;100.00
23170;BME280;11753;43.144;24.714;2023-01-29T05:50:52;100005.06;;;1.86;100.00
23170;BME280;11753;43.144;24.714;2023-01-29T05:51:54;100007.66;;;1.86;100.00
23170;BME280;11753;43.144;24.714;2023-01-29T05:53:00;99999.69;;;1.89;100.00
23170;BME280;11753;43.144;24.714;2023-01-29T05:54:02;100011.94;;;1.87;100.00
23170;BME280;11753;43.144;24.714;2023-01-29T05:55:05;100010.22;;;1.72;100.00
23170;BME280;11753;43.144;24.714;2023-01-29T05:56:08;100009.44;;;1.70;100.00
23170;BME280;11753;43.144;24.714;2023-01-29T05:57:13;100012.31;;;1.65;100.00
23170;BME280;11753;43.144;24.714;2023-01-29T05:58:16;100006.97;;;1.52;100.00
23170;BME280;11753;43.144;24.714;2023-01-29T05:59:20;100011.50;;;1.64;100.00
23170;BME280;11753;43.144;24.714;2023-01-29T06:00:23;100007.34;;;1.76;100.00
23170;BME280;11753;43.144;24.714;2023-01-29T06:01:25;100013.91;;;1.68;100.00
23170;BME280;11753;43.144;24.714;2023-01-29T06:02:29;100018.16;;;1.69;100.00
23170;BME280;11753;43.144;24.714;2023-01-29T06:03:31;100015.81;;;1.80;100.00
23170;BME280;11753;43.144;24.714;2023-01-29T06:04:33;100010.06;;;1.89;100.00
23170;BME280;11753;43.144;24.714;2023-01-29T06:05:37;100015.97;;;1.77;100.00
23170;BME280;11753;43.144;24.714;2023-01-29T06:06:39;100013.50;;;1.59;100.00
23170;BME280;11753;43.144;24.714;2023-01-29T06:07:40;100015.34;;;1.57;100.00
23170;BME280;11753;43.144;24.714;2023-01-29T06:08:45;100013.06;;;1.67;100.00
23170;BME280;11753;43.144;24.714;2023-01-29T06:09:46;100013.00;;;1.53;100.00
23170;BME280;11753;43.144;24.714;2023-01-29T06:10:47;100014.69;;;1.54;100.00
23170;BME280;11753;43.144;24.714;2023-01-29T06:11:48;100016.84;;;1.61;100.00
23170;BME280;11753;43.144;24.714;2023-01-29T06:12:50;100014.81;;;1.67;100.00
23170;BME280;11753;43.144;24.714;2023-01-29T06:13:54;100021.94;;;1.63;100.00
23170;BME280;11753;43.144;24.714;2023-01-29T06:14:55;100018.50;;;1.62;100.00
23170;BME280;11753;43.144;24.714;2023-01-29T06:15:57;100014.50;;;1.57;100.00
23170;BME280;11753;43.144;24.714;2023-01-29T06:16:58;100017.03;;;1.58;100.00
23170;BME280;11753;43.144;24.714;2023-01-29T06:18:00;100022.22;;;1.58;100.00
23170;BME280;11753;43.144;24.714;2023-01-29T06:19:02;100024.63;;;1.61;100.00
23170;BME280;11753;43.144;24.714;2023-01-29T06:20:04;100026.53;;;1.74;100.00
23170;BME280;11753;43.144;24.714;2023-01-29T06:21:08;100022.09;;;1.76;100.00
23170;BME280;11753;43.144;24.714;2023-01-29T06:22:10;100027.28;;;1.76;100.00
23170;BME280;11753;43.144;24.714;2023-01-29T06:23:12;100029.66;;;1.64;100.00
23170;BME280;11753;43.144;24.714;2023-01-29T06:24:13;100024.53;;;1.63;100.00
23170;BME280;11753;43.144;24.714;2023-01-29T06:25:14;100027.53;;;1.71;100.00
23170;BME280;11753;43.144;24.714;2023-01-29T06:26:15;100025.72;;;1.57;100.00
23170;BME280;11753;43.144;24.714;2023-01-29T06:27:17;100028.88;;;1.62;100.00
23170;BME280;11753;43.144;24.714;2023-01-29T06:28:18;100035.91;;;1.76;100.00
23170;BME280;11753;43.144;24.714;2023-01-29T06:29:20;100047.59;;;1.83;100.00
23170;BME280;11753;43.144;24.714;2023-01-29T06:30:21;100034.91;;;1.79;100.00
23170;BME280;11753;43.144;24.714;2023-01-29T06:31:24;100041.09;;;1.76;100.00
23170;BME280;11753;43.144;24.714;2023-01-29T06:32:27;100038.72;;;1.87;100.00
23170;BME280;11753;43.144;24.714;2023-01-29T06:33:30;100039.72;;;1.85;100.00
23170;BME280;11753;43.144;24.714;2023-01-29T06:34:31;100035.50;;;1.98;100.00
23170;BME280;11753;43.144;24.714;2023-01-29T06:35:32;100034.78;;;2.10;100.00
23170;BME280;11753;43.144;24.714;2023-01-29T06:36:33;100040.00;;;2.10;100.00
23170;BME280;11753;43.144;24.714;2023-01-29T06:37:35;100039.63;;;2.16;100.00